Time;durP1;ratioP1;P1;durP2;ratioP2;P2;SDS_P1;SDS_P2;PMS_P1;PMS_P2;Temp;Humidity;BMP_temperature;BMP_pressure;BME280_temperature;BME280_humidity;BME280_pressure;Samples;Min_cycle;Max_cycle;Signal;HPM_P1;HPM_P2
2022/01/01 00:02:07;;;;;;;19.93;8.03;;;20.20;65.10;20.80;101541.00;;;;5026864;28;20240;-39
2022/01/01 00:04:33;;;;;;;14.93;7.30;;;20.20;65.40;20.70;101528.00;;;;5027612;28;20175;-40
2022/01/01 00:06:59;;;;;;;15.37;7.33;;;20.10;65.30;20.70;101530.00;;;;5027084;28;20199;-38
2022/01/01 00:09:24;;;;;;;13.60;7.07;;;20.20;65.30;20.70;101537.00;;;;5027265;28;20260;-38
2022/01/01 00:11:50;;;;;;;15.80;7.17;;;20.20;65.20;20.70;101523.00;;;;5033636;28;20186;-39
2022/01/01 00:14:16;;;;;;;13.67;6.90;;;20.10;65.50;20.70;101531.00;;;;5046432;28;20186;-39
2022/01/01 00:16:42;;;;;;;16.20;7.03;;;20.10;65.60;20.70;101537.00;;;;5057132;28;20203;-39
2022/01/01 00:19:07;;;;;;;15.07;7.03;;;20.10;65.40;20.70;101542.00;;;;5052079;28;20167;-39
2022/01/01 00:21:33;;;;;;;18.00;7.60;;;20.10;65.40;20.70;101546.00;;;;5047230;28;20171;-40
2022/01/01 00:23:59;;;;;;;19.70;7.00;;;20.10;65.50;20.70;101540.00;;;;5047067;28;20174;-39
2022/01/01 00:26:24;;;;;;;20.40;7.40;;;20.10;65.50;20.70;101542.00;;;;5046057;28;20183;-38
2022/01/01 00:28:50;;;;;;;15.80;6.93;;;20.00;65.60;20.60;101557.00;;;;5046528;28;20511;-39
2022/01/01 00:31:16;;;;;;;15.40;6.80;;;20.00;65.70;20.60;101540.00;;;;5046596;28;20178;-39
2022/01/01 00:33:41;;;;;;;18.97;7.20;;;20.10;65.60;20.60;101542.00;;;;5047080;28;20167;-39
2022/01/01 00:36:07;;;;;;;17.67;6.97;;;20.10;65.80;20.60;101555.00;;;;5047135;28;20394;-39
2022/01/01 00:38:33;;;;;;;13.97;5.93;;;20.00;65.80;20.60;101553.00;;;;5046312;28;20194;-40
2022/01/01 00:40:59;;;;;;;13.90;6.60;;;20.00;65.70;20.60;101548.00;;;;5046906;28;20236;-40
2022/01/01 00:43:25;;;;;;;13.10;6.43;;;20.00;65.80;20.60;101555.00;;;;5046794;28;20764;-39
2022/01/01 00:45:50;;;;;;;13.57;6.33;;;19.90;65.80;20.60;101561.00;;;;5046547;28;20191;-39
2022/01/01 00:48:16;;;;;;;16.77;6.60;;;19.90;65.90;20.60;101561.00;;;;5045270;28;20171;-39
2022/01/01 00:50:42;;;;;;;14.03;5.93;;;19.90;66.00;20.60;101565.00;;;;5046361;28;20174;-39
2022/01/01 00:53:07;;;;;;;10.93;6.30;;;19.90;66.20;20.60;101555.00;;;;5046678;28;20255;-39
2022/01/01 00:55:33;;;;;;;13.83;6.30;;;19.90;66.00;20.60;101561.00;;;;5047144;28;20199;-39
2022/01/01 00:57:59;;;;;;;12.87;5.97;;;19.80;66.70;20.60;101565.00;;;;5046892;28;20706;-39
2022/01/01 01:00:25;;;;;;;12.33;6.10;;;19.80;65.90;20.60;101569.00;;;;5046538;28;20193;-39
2022/01/01 01:02:51;;;;;;;9.70;6.43;;;19.80;66.00;20.60;101585.00;;;;5046400;28;20655;-39
2022/01/01 01:05:17;;;;;;;9.43;5.70;;;19.80;66.10;20.60;101572.00;;;;5045715;28;20221;-39
2022/01/01 01:07:42;;;;;;;12.13;6.30;;;19.70;65.90;20.50;101574.00;;;;5046890;28;20170;-39
2022/01/01 01:10:09;;;;;;;8.47;5.70;;;19.70;66.00;20.60;101574.00;;;;5048283;28;20177;-40
2022/01/01 01:12:41;;;;;;;9.37;5.80;;;19.70;66.20;20.50;101582.00;;;;5047241;28;20224;-40
2022/01/01 01:15:10;;;;;;;8.67;5.60;;;19.70;66.20;20.50;101576.00;;;;5046010;28;20871;-40
2022/01/01 01:17:36;;;;;;;9.37;5.83;;;19.70;66.40;20.50;101570.00;;;;5045568;28;20676;-40
2022/01/01 01:20:03;;;;;;;9.67;5.47;;;19.70;66.20;20.50;101570.00;;;;5045938;28;20224;-40
2022/01/01 01:22:29;;;;;;;10.57;5.83;;;19.70;66.30;20.50;101567.00;;;;5045951;28;20178;-39
2022/01/01 01:24:55;;;;;;;8.00;5.30;;;19.70;66.20;20.50;101574.00;;;;5046103;28;20159;-39
2022/01/01 01:27:20;;;;;;;9.37;5.63;;;19.60;66.00;20.60;101577.00;;;;5045664;28;20788;-39
2022/01/01 01:29:46;;;;;;;7.47;5.43;;;19.60;66.20;20.60;101581.00;;;;5045290;28;20529;-38
2022/01/01 01:32:12;;;;;;;8.37;5.60;;;19.60;65.80;20.60;101578.00;;;;5045651;28;20166;-38
2022/01/01 01:34:38;;;;;;;7.77;5.23;;;19.60;65.90;20.60;101589.00;;;;5045920;28;20174;-40
2022/01/01 01:37:03;;;;;;;7.77;5.37;;;19.60;65.90;20.60;101596.00;;;;5045339;28;20256;-39
2022/01/01 01:39:29;;;;;;;6.73;4.73;;;19.60;65.80;20.60;101583.00;;;;5045848;28;20173;-39
2022/01/01 01:41:55;;;;;;;7.97;5.47;;;19.60;66.60;20.60;101585.00;;;;5045521;28;20181;-40
2022/01/01 01:44:32;;;;;;;7.80;5.20;;;19.60;65.70;20.60;101593.00;;;;5046059;28;20154;-40
2022/01/01 01:47:01;;;;;;;7.67;5.10;;;19.60;65.80;20.60;101589.00;;;;5045798;28;20281;-39
2022/01/01 01:49:27;;;;;;;6.77;5.50;;;19.60;65.70;20.60;101577.00;;;;5045125;28;20690;-39
2022/01/01 01:51:53;;;;;;;8.87;5.30;;;19.60;65.80;20.50;101577.00;;;;5044499;28;20175;-40
2022/01/01 01:54:19;;;;;;;6.70;4.67;;;19.60;65.90;20.50;101573.00;;;;5044395;28;20178;-40
2022/01/01 01:56:45;;;;;;;7.47;4.80;;;19.60;65.70;20.50;101572.00;;;;5046096;28;20264;-39
2022/01/01 01:59:11;;;;;;;6.73;4.60;;;19.60;65.70;20.50;101570.00;;;;5051544;28;20224;-39
2022/01/01 02:01:37;;;;;;;6.53;5.00;;;19.50;65.80;20.50;101576.00;;;;5050261;28;20170;-39
2022/01/01 02:04:03;;;;;;;7.13;4.87;;;19.50;65.90;20.50;101571.00;;;;5050898;28;20830;-40
2022/01/01 02:06:28;;;;;;;7.73;5.00;;;19.50;65.90;20.50;101518.00;;;;5049627;28;20583;-40
2022/01/01 02:08:54;;;;;;;6.83;4.97;;;19.50;65.90;20.50;101589.00;;;;5049837;28;20253;-39
2022/01/01 02:11:21;;;;;;;6.10;4.83;;;19.50;66.00;20.50;101583.00;;;;5050420;28;20163;-39
2022/01/01 02:18:53;;;;;;;5.43;4.63;;;19.40;65.70;20.50;101592.00;;;;5050224;28;20194;-39
2022/01/01 02:21:20;;;;;;;6.67;5.00;;;19.50;65.90;20.50;101591.00;;;;5048977;28;20181;-39
2022/01/01 02:23:47;;;;;;;8.70;5.33;;;19.50;65.80;20.50;101582.00;;;;5049354;28;20190;-39
2022/01/01 02:26:15;;;;;;;6.30;4.90;;;19.40;65.80;20.40;101582.00;;;;5049428;28;20269;-39
2022/01/01 02:28:46;;;;;;;7.10;5.20;;;19.40;65.90;20.40;101593.00;;;;5049889;28;20174;-39
2022/01/01 02:31:12;;;;;;;7.50;5.20;;;19.40;65.90;20.40;101587.00;;;;5049194;28;20189;-39
2022/01/01 02:33:38;;;;;;;7.20;5.17;;;19.40;65.90;20.40;101590.00;;;;5049573;28;20656;-39
2022/01/01 02:36:04;;;;;;;6.23;4.50;;;19.40;65.80;20.40;101586.00;;;;5049619;28;20233;-39
2022/01/01 02:38:32;;;;;;;5.80;4.80;;;19.40;65.90;20.40;101583.00;;;;5049329;28;20209;-39
2022/01/01 02:40:58;;;;;;;6.43;4.77;;;19.30;65.80;20.40;101580.00;;;;5049592;28;20171;-39
2022/01/01 02:43:25;;;;;;;5.97;4.50;;;19.30;65.80;20.40;101580.00;;;;5049368;28;20169;-39
2022/01/01 02:45:50;;;;;;;5.90;4.90;;;19.30;65.90;20.40;101587.00;;;;5049465;28;20182;-40
2022/01/01 02:48:16;;;;;;;5.03;4.50;;;19.40;65.90;20.40;101589.00;;;;5049467;28;20983;-40
2022/01/01 02:50:42;;;;;;;5.80;4.80;;;19.30;65.80;20.40;101580.00;;;;5048215;28;20542;-39
2022/01/01 02:53:12;;;;;;;6.00;4.77;;;19.30;66.60;20.40;101576.00;;;;5049543;28;20178;-40
2022/01/01 02:55:38;;;;;;;5.87;5.13;;;19.30;65.60;20.40;101588.00;;;;5047949;28;20190;-40
2022/01/01 02:58:04;;;;;;;5.57;4.47;;;19.30;65.70;20.40;101599.00;;;;5049114;28;20186;-39
2022/01/01 03:00:30;;;;;;;5.90;4.50;;;19.30;65.70;20.40;101597.00;;;;5049381;28;20205;-40
2022/01/01 03:02:56;;;;;;;7.00;4.80;;;19.30;65.80;20.30;101602.00;;;;5048789;28;20166;-39
2022/01/01 03:05:21;;;;;;;6.20;4.67;;;19.20;65.80;20.30;101602.00;;;;5048138;28;20193;-39
2022/01/01 03:07:47;;;;;;;4.83;4.33;;;19.20;65.90;20.30;101607.00;;;;5048078;28;20178;-39
2022/01/01 03:10:13;;;;;;;5.07;4.40;;;19.20;65.80;20.30;101604.00;;;;5048471;28;20181;-39
2022/01/01 03:12:38;;;;;;;6.03;4.70;;;19.20;65.80;20.30;101617.00;;;;5048551;28;20793;-39
2022/01/01 03:15:05;;;;;;;5.83;4.40;;;19.20;65.90;20.30;101628.00;;;;5048543;28;20179;-39
2022/01/01 03:17:30;;;;;;;5.43;4.33;;;19.20;65.90;20.30;101620.00;;;;5048368;28;20293;-39
2022/01/01 03:19:56;;;;;;;5.93;4.70;;;19.20;65.90;20.30;101624.00;;;;5049614;28;20627;-39
2022/01/01 03:22:22;;;;;;;5.80;4.57;;;19.20;66.10;20.30;101616.00;;;;5048427;28;20177;-39
2022/01/01 03:24:47;;;;;;;5.83;4.40;;;19.20;66.00;20.30;101628.00;;;;5048292;28;20174;-39
2022/01/01 03:27:13;;;;;;;5.13;4.47;;;19.20;66.10;20.30;101620.00;;;;5048209;28;20190;-40
2022/01/01 03:29:39;;;;;;;5.43;4.50;;;19.10;66.00;20.30;101614.00;;;;5047967;28;20178;-39
2022/01/01 03:32:05;;;;;;;4.67;4.20;;;19.10;65.90;20.20;101609.00;;;;5047768;28;20178;-39
2022/01/01 03:34:31;;;;;;;5.33;4.67;;;19.20;66.00;20.20;101609.00;;;;5047074;28;20547;-39
2022/01/01 03:36:57;;;;;;;6.50;4.77;;;19.10;65.80;20.00;101630.00;;;;5047989;28;20220;-39
2022/01/01 03:39:22;;;;;;;4.73;4.20;;;19.20;65.80;20.20;101598.00;;;;5047697;28;20170;-40
2022/01/01 03:41:49;;;;;;;5.00;4.50;;;19.20;65.80;20.20;101606.00;;;;5047682;28;20174;-39
2022/01/01 03:44:15;;;;;;;4.80;4.07;;;19.20;65.80;20.20;101612.00;;;;5047825;28;20213;-39
2022/01/01 03:46:40;;;;;;;4.97;4.23;;;19.10;66.00;20.20;101600.00;;;;5047464;28;20183;-40
2022/01/01 03:49:06;;;;;;;4.60;4.20;;;19.10;65.80;20.20;101591.00;;;;5047312;28;20695;-40
2022/01/01 03:51:32;;;;;;;4.67;4.07;;;19.20;65.80;20.20;101600.00;;;;5047627;28;20198;-40
2022/01/01 03:53:58;;;;;;;5.00;4.30;;;19.10;66.00;20.20;101594.00;;;;5047820;28;20184;-40
2022/01/01 03:56:23;;;;;;;5.57;4.33;;;19.10;66.00;20.20;101588.00;;;;5048973;28;20197;-39
2022/01/01 03:58:49;;;;;;;4.40;4.00;;;19.00;66.00;20.20;101590.00;;;;5050894;28;20201;-41
2022/01/01 04:01:15;;;;;;;4.53;4.00;;;19.10;66.20;20.20;101588.00;;;;5050026;28;20182;-40
2022/01/01 04:03:41;;;;;;;4.97;3.90;;;19.10;66.10;20.20;101574.00;;;;5047585;28;20209;-40
2022/01/01 04:06:07;;;;;;;5.20;4.70;;;19.00;66.00;20.20;101582.00;;;;5047546;28;20182;-40
2022/01/01 04:08:32;;;;;;;4.83;4.10;;;19.10;66.10;20.20;101579.00;;;;5047043;28;20181;-39
2022/01/01 04:10:58;;;;;;;5.37;4.47;;;19.10;66.10;20.20;101571.00;;;;5047600;28;20702;-39
2022/01/01 04:13:24;;;;;;;4.33;3.93;;;19.00;66.10;20.10;101573.00;;;;5048468;28;20745;-39
2022/01/01 04:15:49;;;;;;;5.60;4.57;;;19.00;66.10;20.10;101572.00;;;;5047662;28;20186;-39
2022/01/01 04:18:25;;;;;;;5.03;4.43;;;19.00;66.10;20.10;101476.00;;;;5047700;28;20202;-39
2022/01/01 04:20:51;;;;;;;5.60;4.30;;;19.00;66.20;20.10;101568.00;;;;5047616;28;20162;-39
2022/01/01 04:23:17;;;;;;;4.30;3.90;;;19.00;66.20;20.10;101560.00;;;;5047426;28;20174;-39
2022/01/01 04:25:44;;;;;;;4.50;4.10;;;19.00;66.10;20.10;101570.00;;;;5055480;28;20198;-40
2022/01/01 04:28:10;;;;;;;6.57;4.60;;;19.00;66.10;20.10;101583.00;;;;5059111;28;20228;-39
2022/01/01 04:30:35;;;;;;;4.30;3.90;;;19.00;66.60;20.10;101586.00;;;;5047272;28;20671;-43
2022/01/01 04:33:01;;;;;;;6.97;4.20;;;19.00;66.40;20.10;101585.00;;;;5047278;28;20178;-39
2022/01/01 04:35:27;;;;;;;7.07;4.00;;;19.00;66.30;20.10;101578.00;;;;5046911;28;20177;-40
2022/01/01 04:37:52;;;;;;;5.00;3.73;;;19.00;66.20;20.10;101583.00;;;;5047160;28;20205;-39
2022/01/01 04:40:18;;;;;;;5.07;4.10;;;19.00;66.00;20.10;101587.00;;;;5046873;28;20645;-39
2022/01/01 04:42:44;;;;;;;7.37;3.83;;;19.00;66.20;20.10;101594.00;;;;5046816;28;20174;-39
2022/01/01 04:45:11;;;;;;;10.70;4.33;;;19.00;66.20;20.10;101589.00;;;;5046778;28;20174;-39
2022/01/01 04:47:36;;;;;;;7.37;3.77;;;19.00;66.00;20.10;101575.00;;;;5046256;28;20272;-39
2022/01/01 04:50:04;;;;;;;5.60;3.73;;;19.00;65.90;20.10;101588.00;;;;5046385;28;20182;-39
2022/01/01 04:52:30;;;;;;;5.77;4.23;;;19.00;66.00;20.10;101581.00;;;;5046900;28;20228;-39
2022/01/01 04:54:56;;;;;;;6.37;3.80;;;19.00;65.90;20.00;101579.00;;;;5047009;28;20159;-39
2022/01/01 04:57:26;;;;;;;5.00;4.13;;;19.00;65.80;20.00;101577.00;;;;5046464;28;20248;-39
2022/01/01 04:59:52;;;;;;;5.33;3.80;;;18.90;65.80;20.00;101580.00;;;;5046159;28;20154;-39
2022/01/01 05:02:18;;;;;;;4.90;4.10;;;19.00;65.70;20.00;101591.00;;;;5046398;28;20857;-39
2022/01/01 05:04:43;;;;;;;7.53;4.33;;;19.00;65.90;20.00;101584.00;;;;5046305;28;20170;-39
2022/01/01 05:07:09;;;;;;;4.47;4.07;;;18.90;65.70;20.00;101588.00;;;;5046119;28;20198;-39
2022/01/01 05:09:35;;;;;;;4.10;3.70;;;18.90;65.80;20.00;101581.00;;;;5046153;28;20618;-38
2022/01/01 05:12:00;;;;;;;4.57;3.77;;;19.00;65.70;20.00;101581.00;;;;5046019;28;20166;-40
2022/01/01 05:14:26;;;;;;;6.23;4.20;;;18.90;65.60;20.00;101571.00;;;;5045850;28;20193;-38
2022/01/01 05:16:52;;;;;;;6.17;4.30;;;18.90;65.70;20.00;101600.00;;;;5045088;28;20208;-39
2022/01/01 05:19:19;;;;;;;4.80;3.83;;;18.90;65.60;20.00;101600.00;;;;5046136;28;20170;-39
2022/01/01 05:21:46;;;;;;;4.97;3.80;;;18.90;65.60;20.00;101600.00;;;;5046086;28;20225;-39
2022/01/01 05:24:17;;;;;;;4.83;4.00;;;18.90;65.70;20.00;101604.00;;;;5044693;28;20641;-39
2022/01/01 05:26:43;;;;;;;5.13;4.03;;;18.90;65.60;19.90;101600.00;;;;5046249;28;20201;-40
2022/01/01 05:29:09;;;;;;;5.33;4.13;;;18.90;65.70;19.90;101591.00;;;;5045824;28;20174;-39
2022/01/01 05:31:35;;;;;;;6.87;4.20;;;18.90;65.60;19.90;101605.00;;;;5053518;28;20541;-39
2022/01/01 05:34:00;;;;;;;7.80;4.30;;;18.80;65.80;19.90;101600.00;;;;5062703;28;20182;-39
2022/01/01 05:36:26;;;;;;;8.00;4.10;;;18.80;65.70;19.90;101613.00;;;;5045866;28;20232;-38
2022/01/01 05:38:52;;;;;;;7.63;4.30;;;18.80;65.60;19.90;101615.00;;;;5045619;28;20194;-40
2022/01/01 05:41:18;;;;;;;6.17;4.50;;;18.80;65.70;19.90;101617.00;;;;5044911;28;20177;-39
2022/01/01 05:43:43;;;;;;;4.13;3.60;;;18.80;65.40;19.90;101603.00;;;;5035257;28;20567;-39
2022/01/01 05:46:09;;;;;;;5.57;3.83;;;18.80;65.50;19.90;101607.00;;;;5024285;28;20202;-39
2022/01/01 05:48:35;;;;;;;6.50;4.03;;;18.80;65.60;19.90;101606.00;;;;5023764;28;20562;-39
2022/01/01 05:51:00;;;;;;;5.33;4.10;;;18.80;65.40;19.90;101598.00;;;;5029386;28;20186;-39
2022/01/01 05:53:26;;;;;;;5.47;4.10;;;18.80;65.40;19.80;101608.00;;;;5024206;28;20167;-39
2022/01/01 05:55:52;;;;;;;8.27;4.27;;;18.80;65.50;19.80;101609.00;;;;5024702;28;20214;-39
2022/01/01 05:58:17;;;;;;;5.77;4.20;;;18.80;65.40;19.80;101601.00;;;;5025111;28;20201;-39
2022/01/01 06:00:43;;;;;;;4.40;3.70;;;18.80;65.40;19.80;101602.00;;;;5025385;28;20167;-40
2022/01/01 06:03:09;;;;;;;6.87;4.30;;;18.80;65.50;19.80;101603.00;;;;5025236;28;20174;-40
2022/01/01 06:05:35;;;;;;;6.90;3.87;;;18.80;65.50;19.80;101616.00;;;;5025235;28;20195;-40
2022/01/01 06:08:01;;;;;;;5.73;3.97;;;18.80;65.40;19.80;101607.00;;;;5025641;28;20209;-39
2022/01/01 06:10:27;;;;;;;6.40;4.07;;;18.80;65.40;19.80;101604.00;;;;5025227;28;20793;-39
2022/01/01 06:12:53;;;;;;;7.00;3.90;;;18.70;65.30;19.80;101607.00;;;;5042267;28;20580;-40
2022/01/01 06:15:18;;;;;;;4.33;3.93;;;18.80;65.40;19.80;101602.00;;;;5043577;28;20166;-39
2022/01/01 06:17:44;;;;;;;4.27;3.60;;;18.70;65.30;19.80;101591.00;;;;5045368;28;20248;-39
2022/01/01 06:20:11;;;;;;;4.07;3.63;;;18.70;65.30;19.80;101595.00;;;;5045310;28;20234;-39
2022/01/01 06:22:36;;;;;;;5.53;3.97;;;18.70;65.30;19.80;101607.00;;;;5044855;28;20202;-40
2022/01/01 06:25:03;;;;;;;3.80;3.50;;;18.80;66.20;19.80;101602.00;;;;5045546;28;20205;-39
2022/01/01 06:27:28;;;;;;;4.17;3.63;;;18.70;65.30;19.80;101612.00;;;;5047565;28;20300;-39
2022/01/01 06:29:54;;;;;;;4.97;3.50;;;18.70;65.30;19.80;101617.00;;;;5046892;28;20174;-39
2022/01/01 06:32:20;;;;;;;4.53;3.70;;;18.70;65.50;19.80;101621.00;;;;5047127;28;20171;-39
2022/01/01 06:34:46;;;;;;;4.87;3.63;;;18.70;65.40;19.70;101616.00;;;;5045470;28;20153;-39
2022/01/01 06:37:11;;;;;;;5.60;4.00;;;18.70;65.40;19.70;101628.00;;;;5045588;28;20701;-39
2022/01/01 06:39:37;;;;;;;6.20;4.00;;;18.70;65.30;19.70;101621.00;;;;5045371;28;20171;-40
2022/01/01 06:42:03;;;;;;;5.10;3.70;;;18.70;65.30;19.70;101636.00;;;;5047627;28;20184;-39
2022/01/01 06:44:29;;;;;;;5.13;3.60;;;18.70;65.30;19.70;101634.00;;;;5049994;28;20159;-40
2022/01/01 06:46:54;;;;;;;5.07;3.70;;;18.70;65.30;19.70;101643.00;;;;5048576;28;20187;-39
2022/01/01 06:49:20;;;;;;;4.10;3.23;;;18.70;65.30;19.70;101633.00;;;;5048310;28;20671;-39
2022/01/01 06:51:46;;;;;;;3.87;3.43;;;18.70;65.30;19.70;101640.00;;;;5047925;28;20241;-39
2022/01/01 06:54:12;;;;;;;4.87;3.50;;;18.70;65.30;19.70;101645.00;;;;5048849;28;20292;-39
2022/01/01 06:56:37;;;;;;;4.50;3.63;;;18.70;65.30;19.70;101639.00;;;;5061701;28;20421;-39
2022/01/01 06:59:03;;;;;;;3.63;3.20;;;18.70;65.30;19.70;101643.00;;;;5056102;28;20563;-39
2022/01/01 07:01:29;;;;;;;4.00;3.43;;;18.70;65.30;19.70;101637.00;;;;5048169;28;20223;-39
2022/01/01 07:03:55;;;;;;;4.20;3.40;;;18.70;65.30;19.70;101643.00;;;;5047054;28;20668;-38
2022/01/01 07:06:21;;;;;;;5.33;3.33;;;18.60;65.20;19.70;101651.00;;;;5048191;28;20273;-39
2022/01/01 07:08:47;;;;;;;5.33;3.47;;;18.70;65.30;19.70;101646.00;;;;5048227;28;20182;-39
2022/01/01 07:11:13;;;;;;;3.73;3.30;;;18.60;65.20;19.70;101652.00;;;;5047663;28;20185;-40
2022/01/01 07:13:38;;;;;;;5.37;3.40;;;18.70;65.30;19.70;101653.00;;;;5048193;28;20193;-40
2022/01/01 07:16:05;;;;;;;4.10;3.30;;;18.60;65.20;19.70;101644.00;;;;5048238;28;20194;-39
2022/01/01 07:18:31;;;;;;;4.77;3.30;;;18.60;65.20;19.70;101646.00;;;;5047921;28;20237;-40
2022/01/01 07:20:57;;;;;;;4.50;3.30;;;18.60;65.20;19.70;101645.00;;;;5047938;28;20228;-40
2022/01/01 07:23:22;;;;;;;4.53;3.23;;;18.60;65.20;19.60;101657.00;;;;5048518;28;20174;-40
2022/01/01 07:25:48;;;;;;;4.30;3.27;;;18.60;65.20;19.60;101638.00;;;;5048053;28;20245;-41
2022/01/01 07:28:16;;;;;;;4.27;3.20;;;18.60;65.20;19.40;101637.00;;;;5047518;28;20170;-40
2022/01/01 07:30:45;;;;;;;3.80;3.40;;;18.60;65.20;19.60;101643.00;;;;5047794;28;20171;-39
2022/01/01 07:33:14;;;;;;;4.43;3.03;;;18.60;65.20;19.60;101647.00;;;;5048189;28;20187;-39
2022/01/01 07:35:40;;;;;;;3.40;3.10;;;18.60;65.20;19.60;101643.00;;;;5048278;28;20672;-39
2022/01/01 07:38:06;;;;;;;3.57;3.00;;;18.60;65.20;19.60;101644.00;;;;5047704;28;20277;-40
2022/01/01 07:40:34;;;;;;;4.60;3.27;;;18.60;65.20;19.60;101664.00;;;;5047608;28;20734;-40
2022/01/01 07:43:20;;;;;;;3.93;2.97;;;18.50;65.10;19.60;101651.00;;;;5047900;28;20193;-40
2022/01/01 07:45:46;;;;;;;3.63;3.10;;;18.60;65.20;19.60;101657.00;;;;5047293;28;20897;-39
2022/01/01 07:48:12;;;;;;;4.00;3.13;;;18.60;65.20;19.60;101664.00;;;;5047767;28;20178;-39
2022/01/01 07:50:38;;;;;;;3.60;3.00;;;18.50;65.10;19.60;101669.00;;;;5047846;28;20232;-39
2022/01/01 07:53:05;;;;;;;4.63;3.10;;;18.60;65.20;19.60;101666.00;;;;5047324;28;20178;-39
2022/01/01 07:55:31;;;;;;;3.20;2.70;;;18.50;65.10;19.60;101666.00;;;;5046936;28;20166;-39
2022/01/01 07:57:57;;;;;;;3.57;2.80;;;18.50;65.10;19.60;101661.00;;;;5047649;28;20751;-40
2022/01/01 08:00:23;;;;;;;3.60;2.87;;;18.60;65.20;19.60;101663.00;;;;5047600;28;20197;-39
2022/01/01 08:02:48;;;;;;;3.27;2.80;;;18.50;65.10;19.50;101654.00;;;;5060913;28;20178;-38
2022/01/01 08:05:17;;;;;;;3.93;3.00;;;18.50;65.10;19.50;101660.00;;;;5058321;28;20181;-39
2022/01/01 08:07:44;;;;;;;3.27;2.93;;;18.50;65.10;19.50;101658.00;;;;5047712;28;20232;-39
2022/01/01 08:10:10;;;;;;;3.27;2.97;;;18.50;65.10;19.50;101655.00;;;;5047510;28;20166;-40
2022/01/01 08:12:36;;;;;;;3.33;3.03;;;18.50;65.10;19.50;101659.00;;;;5048530;28;20205;-39
2022/01/01 08:15:03;;;;;;;3.00;2.60;;;18.50;65.10;19.50;101658.00;;;;5047950;28;20182;-39
2022/01/01 08:17:29;;;;;;;3.73;2.90;;;18.50;65.10;19.50;101652.00;;;;5038893;28;20221;-40
2022/01/01 08:19:55;;;;;;;3.80;3.00;;;18.50;65.10;19.50;101650.00;;;;5037432;28;20166;-39
2022/01/01 08:22:20;;;;;;;3.93;3.00;;;18.50;65.10;19.50;101669.00;;;;5037775;28;20304;-39
2022/01/01 08:24:46;;;;;;;3.73;2.70;;;18.50;65.10;19.50;101680.00;;;;5031854;28;20178;-39
2022/01/01 08:27:12;;;;;;;3.47;2.67;;;18.50;65.10;19.50;101669.00;;;;5030509;28;20202;-39
2022/01/01 08:29:38;;;;;;;3.93;2.90;;;18.50;65.10;19.50;101679.00;;;;5048016;28;20206;-39
2022/01/01 08:32:05;;;;;;;3.17;2.70;;;18.50;65.10;19.50;101681.00;;;;5049315;28;20775;-39
2022/01/01 08:34:31;;;;;;;3.23;2.87;;;18.50;65.10;19.50;101675.00;;;;5032077;28;20215;-39
2022/01/01 08:36:57;;;;;;;3.10;2.60;;;18.50;65.10;19.50;101671.00;;;;5049428;28;20192;-39
2022/01/01 08:39:23;;;;;;;2.70;2.50;;;18.50;65.00;19.50;101685.00;;;;5049033;28;20180;-40
2022/01/01 08:41:49;;;;;;;3.70;2.80;;;18.40;65.00;19.50;101680.00;;;;5048832;28;20177;-41
2022/01/01 08:44:15;;;;;;;3.80;2.97;;;18.50;65.20;19.50;101683.00;;;;5045082;28;20173;-39
2022/01/01 08:46:41;;;;;;;4.17;2.70;;;18.50;65.10;19.50;101687.00;;;;5029430;28;20366;-39
2022/01/01 08:49:07;;;;;;;3.57;2.70;;;18.40;65.00;19.50;101600.00;;;;5036425;28;20209;-39
2022/01/01 08:51:36;;;;;;;7.57;2.83;;;18.40;66.10;19.50;101678.00;;;;5048796;28;20204;-39
2022/01/01 08:54:03;;;;;;;7.27;2.90;;;18.50;66.20;19.50;101673.00;;;;5049369;28;20650;-40
2022/01/01 08:56:29;;;;;;;3.57;2.77;;;18.60;66.40;19.50;101688.00;;;;5048964;28;20223;-39
2022/01/01 08:58:55;;;;;;;5.07;2.70;;;18.80;66.40;19.60;101677.00;;;;5047358;28;20329;-39
2022/01/01 09:01:20;;;;;;;3.23;2.60;;;19.00;65.90;19.70;101679.00;;;;5048566;28;20170;-39
2022/01/01 09:03:46;;;;;;;6.77;2.57;;;19.20;65.60;19.80;101671.00;;;;5046470;28;20190;-39
2022/01/01 09:06:12;;;;;;;4.70;2.67;;;19.50;65.20;20.00;101662.00;;;;5037883;28;20190;-40
2022/01/01 09:08:42;;;;;;;4.47;2.50;;;19.70;64.60;20.10;101672.00;;;;5030843;28;20207;-39
2022/01/01 09:11:09;;;;;;;3.77;2.53;;;19.90;64.30;20.30;101666.00;;;;5033127;28;20167;-39
2022/01/01 09:13:35;;;;;;;3.57;2.40;;;20.00;64.00;20.40;101667.00;;;;5029235;28;20215;-39
2022/01/01 09:16:00;;;;;;;4.03;2.60;;;20.10;64.10;20.50;101665.00;;;;5028894;28;20625;-38
2022/01/01 09:18:26;;;;;;;4.53;2.50;;;20.20;64.10;20.60;101663.00;;;;5028634;28;20210;-39
2022/01/01 09:20:52;;;;;;;4.83;2.30;;;20.30;64.00;20.60;101666.00;;;;5028218;28;20719;-39
2022/01/01 09:23:18;;;;;;;3.50;2.20;;;20.30;63.90;20.70;101660.00;;;;5028975;28;20545;-39
2022/01/01 09:25:44;;;;;;;3.87;2.30;;;20.30;63.90;20.70;101664.00;;;;5027269;28;20183;-39
2022/01/01 09:28:10;;;;;;;5.33;2.50;;;20.40;63.90;20.80;101666.00;;;;5026591;28;20202;-38
2022/01/01 09:30:35;;;;;;;3.50;2.10;;;20.40;64.00;20.80;101662.00;;;;5026983;28;20166;-40
2022/01/01 09:33:02;;;;;;;2.70;2.20;;;20.40;64.10;20.90;101663.00;;;;5027029;28;20179;-39
2022/01/01 09:35:28;;;;;;;3.80;2.30;;;20.40;64.10;20.90;101679.00;;;;5026362;28;20179;-39
2022/01/01 09:37:53;;;;;;;2.83;2.23;;;20.30;64.10;20.90;101670.00;;;;5026627;28;20629;-39
2022/01/01 09:40:19;;;;;;;2.63;2.30;;;20.40;64.40;20.90;101674.00;;;;5037136;28;20647;-39
2022/01/01 09:42:46;;;;;;;2.90;2.50;;;20.40;64.30;20.90;101669.00;;;;5038267;28;20177;-39
2022/01/01 09:45:11;;;;;;;2.93;2.50;;;20.30;64.30;20.90;101676.00;;;;5038757;28;20429;-40
2022/01/01 09:47:37;;;;;;;2.53;2.27;;;20.30;64.30;20.90;101667.00;;;;5039663;28;20560;-40
2022/01/01 09:50:07;;;;;;;3.10;2.13;;;20.30;64.40;20.90;101667.00;;;;5033597;28;20225;-39
2022/01/01 09:52:33;;;;;;;4.03;2.50;;;20.30;64.40;21.00;101652.00;;;;5028407;28;20225;-39
2022/01/01 09:54:59;;;;;;;3.47;2.30;;;20.30;64.50;21.00;101668.00;;;;5028679;28;20202;-39
2022/01/01 09:57:25;;;;;;;2.57;2.20;;;20.30;64.50;20.90;101665.00;;;;5028346;28;20210;-39
2022/01/01 09:59:51;;;;;;;2.77;2.10;;;20.30;64.60;20.90;101668.00;;;;5027861;28;20178;-40
2022/01/01 10:02:17;;;;;;;3.30;2.10;;;20.30;64.70;21.00;101664.00;;;;5027133;28;20210;-39
2022/01/01 10:04:52;;;;;;;4.17;2.30;;;20.30;64.70;21.00;101683.00;;;;5028456;28;20207;-40
2022/01/01 10:07:25;;;;;;;2.87;2.50;;;20.30;64.80;21.00;101689.00;;;;5027964;28;20221;-39
2022/01/01 10:09:51;;;;;;;2.93;2.30;;;20.30;64.80;20.90;101698.00;;;;5027920;28;20198;-40
2022/01/01 10:12:17;;;;;;;2.50;2.20;;;20.30;64.70;20.90;101693.00;;;;5030129;28;20181;-39
2022/01/01 10:14:45;;;;;;;2.50;2.30;;;20.30;64.40;20.90;101693.00;;;;5027441;28;20206;-39
2022/01/01 10:17:21;;;;;;;3.60;2.30;;;20.40;64.50;20.90;101702.00;;;;5029032;28;20227;-39
2022/01/01 10:19:52;;;;;;;3.70;2.20;;;20.30;65.00;20.90;101699.00;;;;5039909;28;20659;-39
2022/01/01 10:22:22;;;;;;;2.73;2.40;;;20.40;64.90;20.90;101697.00;;;;5046128;28;20170;-39
2022/01/01 10:27:46;;;;;;;2.40;2.20;;;20.40;64.60;20.90;101679.00;;;;5051933;28;20344;-39
2022/01/01 10:30:24;;;;;;;3.67;2.10;;;20.30;64.30;20.90;101680.00;;;;5052126;28;20185;-39
2022/01/01 10:33:09;;;;;;;2.90;2.23;;;20.30;64.30;20.90;101683.00;;;;5051817;28;20615;-40
2022/01/01 10:35:43;;;;;;;4.07;2.30;;;20.30;64.30;20.90;101678.00;;;;5052278;28;20643;-40
2022/01/01 10:38:22;;;;;;;3.90;2.03;;;20.30;64.30;20.90;101680.00;;;;5052122;28;20868;-40
2022/01/01 10:40:48;;;;;;;4.20;2.23;;;20.30;64.30;20.80;101666.00;;;;5051745;28;20223;-40
2022/01/01 10:43:15;;;;;;;5.53;2.40;;;20.30;64.50;20.80;101664.00;;;;5050279;28;20225;-40
2022/01/01 10:45:45;;;;;;;3.67;2.17;;;20.30;64.60;20.80;101667.00;;;;5051443;28;20669;-40
2022/01/01 10:48:41;;;;;;;6.03;2.33;;;20.30;65.10;20.80;101676.00;;;;5051376;28;20165;-39
2022/01/01 10:51:09;;;;;;;4.53;2.40;;;20.30;64.80;20.80;101654.00;;;;5050480;28;20193;-40
2022/01/01 10:53:35;;;;;;;3.00;2.40;;;20.30;64.80;20.80;101661.00;;;;5051690;28;20229;-40